Time;durP1;ratioP1;P1;durP2;ratioP2;P2;SDS_P1;SDS_P2;PMS_P1;PMS_P2;Temp;Humidity;BMP_temperature;BMP_pressure;BME280_temperature;BME280_humidity;BME280_pressure;Samples;Min_cycle;Max_cycle;Signal;HPM_P1;HPM_P2
2022/09/29 00:01:59;;;;;;;1999.90;999.90;;;9.10;99.90;;;;;;5015331;28;20174;-67
2022/09/29 00:04:24;;;;;;;1999.90;999.90;;;9.00;99.90;;;;;;5014886;28;20220;-67
2022/09/29 00:06:50;;;;;;;1999.90;999.90;;;8.90;99.90;;;;;;5014861;28;20211;-67
2022/09/29 00:09:15;;;;;;;1999.90;999.90;;;9.00;99.90;;;;;;5014971;28;20197;-67
2022/09/29 00:11:42;;;;;;;1999.90;999.90;;;9.00;99.90;;;;;;5015050;28;20166;-67
2022/09/29 00:14:08;;;;;;;1999.90;999.90;;;8.90;99.90;;;;;;5014962;28;20287;-67
2022/09/29 00:16:33;;;;;;;1999.90;999.90;;;8.80;99.90;;;;;;5014783;28;20491;-67
2022/09/29 00:18:59;;;;;;;1999.90;999.90;;;8.90;99.90;;;;;;5014858;28;20511;-67
2022/09/29 00:21:25;;;;;;;1999.90;999.90;;;9.00;99.90;;;;;;5014948;28;20244;-67
2022/09/29 00:23:50;;;;;;;1999.90;999.90;;;9.00;99.90;;;;;;5014706;28;20236;-66
2022/09/29 00:26:19;;;;;;;1999.90;999.90;;;9.00;99.90;;;;;;5014811;28;20179;-67
2022/09/29 00:28:48;;;;;;;1999.90;999.90;;;8.90;99.90;;;;;;5014539;28;20169;-67
2022/09/29 00:31:14;;;;;;;1999.90;999.90;;;8.80;99.90;;;;;;5014821;28;20449;-67
2022/09/29 00:33:40;;;;;;;1999.90;999.90;;;8.70;99.90;;;;;;5014516;28;20455;-67
2022/09/29 00:36:08;;;;;;;1999.90;999.90;;;8.70;99.90;;;;;;5014581;28;20408;-67
2022/09/29 00:38:34;;;;;;;1999.90;999.90;;;8.60;99.90;;;;;;5014290;28;20452;-67
2022/09/29 00:41:00;;;;;;;1999.90;999.90;;;8.50;99.90;;;;;;5014592;28;20973;-67
2022/09/29 00:44:03;;;;;;;1999.90;999.90;;;8.70;99.90;;;;;;5014312;28;20477;-67
2022/09/29 00:46:40;;;;;;;1999.90;999.90;;;8.50;99.90;;;;;;4963672;28;20253;-67
2022/09/29 00:49:18;;;;;;;1999.90;999.90;;;8.40;99.90;;;;;;5013141;28;20410;-67
2022/09/29 00:51:52;;;;;;;1999.90;999.90;;;8.40;99.90;;;;;;5014394;28;20423;-67
2022/09/29 00:54:18;;;;;;;1999.90;999.90;;;8.40;99.90;;;;;;5014173;28;20412;-67
2022/09/29 00:56:45;;;;;;;1999.90;999.90;;;8.40;99.90;;;;;;5014104;28;20393;-67
2022/09/29 00:59:15;;;;;;;1999.90;999.90;;;8.30;99.90;;;;;;5014102;28;20415;-67
2022/09/29 01:01:41;;;;;;;1999.90;999.90;;;8.30;99.90;;;;;;5014268;28;20948;-67
2022/09/29 01:04:11;;;;;;;1999.90;999.90;;;8.20;99.90;;;;;;5014095;28;20423;-67
2022/09/29 01:06:45;;;;;;;1999.90;999.90;;;8.20;99.90;;;;;;5013975;28;20192;-67
2022/09/29 01:09:16;;;;;;;1999.90;999.90;;;8.10;99.90;;;;;;5014046;28;20424;-67
2022/09/29 01:11:41;;;;;;;1999.90;999.90;;;8.10;99.90;;;;;;5013978;28;20404;-67
2022/09/29 01:14:09;;;;;;;1999.90;999.90;;;8.10;99.90;;;;;;5013886;28;20421;-68
2022/09/29 01:16:36;;;;;;;1999.90;999.90;;;8.10;99.90;;;;;;5013736;28;20165;-68
2022/09/29 01:19:13;;;;;;;1999.90;999.90;;;8.00;99.90;;;;;;5013751;28;20463;-68
2022/09/29 01:21:45;;;;;;;1999.90;999.90;;;8.00;99.90;;;;;;4997277;28;20393;-68
2022/09/29 01:24:32;;;;;;;1999.90;999.90;;;7.90;99.90;;;;;;5013732;28;20419;-68
2022/09/29 01:27:32;;;;;;;1999.90;999.90;;;7.90;99.90;;;;;;5013533;28;20766;-67
2022/09/29 01:30:10;;;;;;;1999.90;999.90;;;7.70;99.90;;;;;;5013609;28;20498;-67
2022/09/29 01:33:06;;;;;;;1999.90;999.90;;;7.70;99.90;;;;;;5013528;28;20427;-67
2022/09/29 01:36:09;;;;;;;1999.90;999.90;;;7.70;99.90;;;;;;5013590;28;20434;-67
2022/09/29 01:38:59;;;;;;;1999.90;999.90;;;7.60;99.90;;;;;;4914646;29;20428;-67
2022/09/29 01:41:39;;;;;;;1999.90;999.90;;;7.50;99.90;;;;;;5010903;28;20412;-67
2022/09/29 01:44:17;;;;;;;1999.90;999.90;;;7.40;99.90;;;;;;5013245;28;20443;-67
2022/09/29 01:46:47;;;;;;;1999.90;999.90;;;7.40;99.90;;;;;;5013218;28;20436;-68
2022/09/29 01:49:13;;;;;;;1999.90;999.90;;;7.30;99.90;;;;;;5013255;28;20413;-68
2022/09/29 01:51:48;;;;;;;1999.90;999.90;;;7.30;99.90;;;;;;5013109;28;20556;-68
2022/09/29 01:54:35;;;;;;;1999.90;999.90;;;7.30;99.90;;;;;;5013167;28;20506;-67
2022/09/29 01:57:11;;;;;;;1999.90;999.90;;;7.30;99.90;;;;;;5012963;28;20403;-68
2022/09/29 01:59:56;;;;;;;1999.90;999.90;;;7.30;99.90;;;;;;5012787;28;20490;-68
2022/09/29 02:02:30;;;;;;;1999.90;999.90;;;7.30;99.90;;;;;;5013024;28;20431;-68
2022/09/29 02:05:01;;;;;;;1999.90;999.90;;;7.40;99.90;;;;;;5013052;28;20771;-68
2022/09/29 02:07:34;;;;;;;1999.90;999.90;;;7.40;99.90;;;;;;5012770;28;20412;-68
2022/09/29 02:10:03;;;;;;;1999.90;999.90;;;7.30;99.90;;;;;;5012888;28;20586;-67
2022/09/29 02:12:33;;;;;;;1999.90;999.90;;;7.30;99.90;;;;;;5012766;28;20835;-67
2022/09/29 02:15:01;;;;;;;1999.90;999.90;;;7.10;99.90;;;;;;5012917;28;20462;-67
2022/09/29 02:17:32;;;;;;;1999.90;999.90;;;6.90;99.90;;;;;;5012562;28;20416;-67
2022/09/29 02:19:58;;;;;;;1999.90;999.90;;;6.90;99.90;;;;;;5012757;28;20405;-68
2022/09/29 02:22:25;;;;;;;1999.90;999.90;;;6.80;99.90;;;;;;4994803;28;20416;-68
2022/09/29 02:24:53;;;;;;;1999.90;999.90;;;6.70;99.90;;;;;;4995048;28;20422;-68
2022/09/29 02:27:20;;;;;;;1999.90;999.90;;;6.70;99.90;;;;;;5012490;28;20461;-68
2022/09/29 02:29:47;;;;;;;1999.90;999.90;;;6.60;99.90;;;;;;5012536;28;20478;-68
2022/09/29 02:32:13;;;;;;;1999.90;999.90;;;6.70;99.90;;;;;;4962796;28;20440;-68
2022/09/29 02:34:44;;;;;;;1999.90;999.90;;;6.60;99.90;;;;;;5012482;28;20446;-68
2022/09/29 02:37:46;;;;;;;1999.90;999.90;;;6.70;99.90;;;;;;5012202;28;20474;-68
2022/09/29 02:40:26;;;;;;;1999.90;999.90;;;6.60;99.90;;;;;;5012333;28;20498;-68
2022/09/29 02:43:06;;;;;;;1999.90;999.90;;;6.60;99.90;;;;;;5012231;28;20975;-68
2022/09/29 02:46:02;;;;;;;1999.90;999.90;;;6.60;99.90;;;;;;4994961;28;20422;-68
2022/09/29 02:48:34;;;;;;;1999.90;999.90;;;6.50;99.90;;;;;;4994515;28;20408;-68
2022/09/29 02:51:11;;;;;;;1999.90;999.90;;;6.50;99.90;;;;;;5012170;28;20546;-68
2022/09/29 02:53:46;;;;;;;1999.90;999.90;;;6.50;99.90;;;;;;5012285;28;20511;-68
2022/09/29 02:56:39;;;;;;;1999.90;999.90;;;6.40;99.90;;;;;;5012129;28;20392;-68
2022/09/29 02:59:05;;;;;;;1999.90;999.90;;;6.50;99.90;;;;;;5012144;28;20388;-67
2022/09/29 03:01:32;;;;;;;1999.90;999.90;;;6.50;99.90;;;;;;5012165;28;20483;-67
2022/09/29 03:03:59;;;;;;;1999.90;999.90;;;6.50;99.90;;;;;;5012093;28;20189;-67
2022/09/29 03:06:24;;;;;;;1999.90;999.90;;;6.50;99.90;;;;;;5011971;28;20404;-67
2022/09/29 03:08:50;;;;;;;1999.90;999.90;;;6.50;99.90;;;;;;5011885;28;20411;-67
2022/09/29 03:11:16;;;;;;;1999.90;999.90;;;6.50;99.90;;;;;;5012483;28;20586;-67
2022/09/29 03:13:41;;;;;;;1999.90;999.90;;;6.40;99.90;;;;;;5016154;28;20185;-67
2022/09/29 03:16:07;;;;;;;1999.90;999.90;;;6.40;99.90;;;;;;4998411;28;20164;-67
2022/09/29 03:18:33;;;;;;;1999.90;999.90;;;6.40;99.90;;;;;;5024014;28;20674;-67
2022/09/29 03:21:02;;;;;;;1999.90;999.90;;;6.50;99.90;;;;;;5017894;28;20176;-67
2022/09/29 03:23:28;;;;;;;1999.90;999.90;;;6.50;99.90;;;;;;5017984;28;20435;-67
2022/09/29 03:25:53;;;;;;;1999.90;999.90;;;6.50;99.90;;;;;;5035700;28;20410;-67
2022/09/29 03:28:19;;;;;;;1999.90;999.90;;;6.50;99.90;;;;;;5017814;28;20180;-68
2022/09/29 03:30:45;;;;;;;1999.90;999.90;;;6.50;99.90;;;;;;5035538;28;20796;-67
2022/09/29 03:33:11;;;;;;;1999.90;999.90;;;6.50;99.90;;;;;;5035527;28;20276;-67
2022/09/29 03:35:37;;;;;;;1999.90;999.90;;;6.60;99.90;;;;;;5035386;28;20176;-67
2022/09/29 03:38:02;;;;;;;1999.90;999.90;;;6.50;99.90;;;;;;5035190;28;20398;-67
2022/09/29 03:40:28;;;;;;;1999.90;999.90;;;6.50;99.90;;;;;;5035480;28;20440;-67
2022/09/29 03:42:55;;;;;;;1999.90;999.90;;;6.40;99.90;;;;;;5035283;28;20211;-67
2022/09/29 03:45:21;;;;;;;1999.90;999.90;;;6.50;99.90;;;;;;5017809;28;20255;-67
2022/09/29 03:47:47;;;;;;;1999.90;999.90;;;6.50;99.90;;;;;;5000820;28;20423;-67
2022/09/29 03:50:13;;;;;;;1999.90;999.90;;;6.50;99.90;;;;;;5017469;28;20451;-67
2022/09/29 03:52:42;;;;;;;1999.90;999.90;;;6.40;99.90;;;;;;5035158;28;20751;-67
2022/09/29 03:55:08;;;;;;;1999.90;999.90;;;6.40;99.90;;;;;;5035127;28;20160;-67
2022/09/29 03:57:34;;;;;;;1999.90;999.90;;;6.30;99.90;;;;;;5017172;28;20396;-68
2022/09/29 04:00:00;;;;;;;1999.90;999.90;;;6.30;99.90;;;;;;5035068;28;21081;-68
2022/09/29 04:02:26;;;;;;;1999.90;999.90;;;6.30;99.90;;;;;;5017206;28;20203;-67
2022/09/29 04:04:51;;;;;;;1999.90;999.90;;;6.30;99.90;;;;;;5035028;28;20445;-68
2022/09/29 04:07:17;;;;;;;1999.90;999.90;;;6.20;99.90;;;;;;5034729;28;20539;-67
2022/09/29 04:09:42;;;;;;;1999.90;999.90;;;6.20;99.90;;;;;;5034935;28;20250;-67
2022/09/29 04:12:08;;;;;;;1999.90;999.90;;;6.20;99.90;;;;;;5034874;28;20196;-67
2022/09/29 04:14:33;;;;;;;1999.90;999.90;;;6.20;99.90;;;;;;5034783;28;20192;-67
2022/09/29 04:16:59;;;;;;;1999.90;999.90;;;6.20;99.90;;;;;;5034591;28;20168;-67
2022/09/29 04:19:24;;;;;;;1999.90;999.90;;;6.10;99.90;;;;;;5034639;28;20198;-68
2022/09/29 04:21:50;;;;;;;1999.90;999.90;;;6.20;99.90;;;;;;5034719;28;20191;-67
2022/09/29 04:24:16;;;;;;;1999.90;999.90;;;6.20;99.90;;;;;;5034356;28;20192;-67
2022/09/29 04:26:41;;;;;;;1999.90;999.90;;;6.10;99.90;;;;;;5034490;28;20168;-67
2022/09/29 04:29:07;;;;;;;1999.90;999.90;;;6.10;99.90;;;;;;5034503;28;20169;-67
2022/09/29 04:31:32;;;;;;;1999.90;999.90;;;6.10;99.90;;;;;;5034536;28;20585;-67
2022/09/29 04:33:58;;;;;;;1999.90;999.90;;;6.10;99.90;;;;;;5034457;28;20240;-67
2022/09/29 04:36:23;;;;;;;1999.90;999.90;;;6.10;99.90;;;;;;5034408;28;20238;-67
2022/09/29 04:38:50;;;;;;;1999.90;999.90;;;6.10;99.90;;;;;;5034261;28;20175;-67
2022/09/29 04:41:16;;;;;;;1999.90;999.90;;;6.10;99.90;;;;;;5034467;28;20164;-67
2022/09/29 04:43:42;;;;;;;1999.90;999.90;;;6.10;99.90;;;;;;5034355;28;20818;-68
2022/09/29 04:46:08;;;;;;;1999.90;999.90;;;6.00;99.90;;;;;;5034401;28;20415;-67
2022/09/29 04:48:35;;;;;;;1999.90;999.90;;;6.00;99.90;;;;;;5033992;28;20183;-67
2022/09/29 04:51:01;;;;;;;1999.90;999.90;;;6.00;99.90;;;;;;5034216;28;20827;-68
2022/09/29 04:53:26;;;;;;;1999.90;999.90;;;5.90;99.90;;;;;;5034063;28;20836;-67
2022/09/29 04:55:52;;;;;;;1999.90;999.90;;;5.90;99.90;;;;;;5034044;28;20482;-67
2022/09/29 04:58:18;;;;;;;1999.90;999.90;;;5.90;99.90;;;;;;5034066;28;20630;-67
2022/09/29 05:00:44;;;;;;;1999.90;999.90;;;5.90;99.90;;;;;;5034027;28;20169;-67
2022/09/29 05:03:09;;;;;;;1999.90;999.90;;;5.90;99.90;;;;;;5033766;28;20293;-67
2022/09/29 05:05:35;;;;;;;1999.90;999.90;;;5.90;99.90;;;;;;5033954;28;20207;-67
2022/09/29 05:08:03;;;;;;;1999.90;999.90;;;5.90;99.90;;;;;;5033642;28;20179;-67
2022/09/29 05:10:29;;;;;;;1999.90;999.90;;;6.00;99.90;;;;;;5033739;28;20279;-67
2022/09/29 05:12:54;;;;;;;1999.90;999.90;;;6.10;99.90;;;;;;5033776;28;20506;-67
2022/09/29 05:15:20;;;;;;;1999.90;999.90;;;6.10;99.90;;;;;;5033739;28;20426;-67
2022/09/29 05:17:46;;;;;;;1999.90;999.90;;;6.10;99.90;;;;;;5033281;28;20183;-67
2022/09/29 05:20:12;;;;;;;1999.90;999.90;;;6.10;99.90;;;;;;5033703;28;20314;-67
2022/09/29 05:22:37;;;;;;;1999.90;999.90;;;6.10;99.90;;;;;;5033603;28;20576;-67
2022/09/29 05:25:04;;;;;;;1999.90;999.90;;;6.10;99.90;;;;;;5033603;28;20633;-67
2022/09/29 05:27:29;;;;;;;1999.90;999.90;;;6.10;99.90;;;;;;5033124;28;20708;-67
2022/09/29 05:29:55;;;;;;;1999.90;999.90;;;6.20;99.90;;;;;;5033415;28;20454;-67
2022/09/29 05:32:20;;;;;;;1999.90;999.90;;;6.10;99.90;;;;;;5033320;28;20689;-67
2022/09/29 05:34:46;;;;;;;1999.90;999.90;;;6.10;99.90;;;;;;5032604;28;20188;-67
2022/09/29 05:37:12;;;;;;;1999.90;999.90;;;6.10;99.90;;;;;;5033113;28;20183;-67
2022/09/29 05:39:38;;;;;;;1999.90;999.90;;;6.10;99.90;;;;;;5033293;28;20168;-67
2022/09/29 05:42:05;;;;;;;1999.90;999.90;;;6.10;99.90;;;;;;5033296;28;20403;-67
2022/09/29 05:44:32;;;;;;;1999.90;999.90;;;6.10;99.90;;;;;;5032157;28;20470;-67
2022/09/29 05:46:58;;;;;;;1999.90;999.90;;;6.10;99.90;;;;;;5031909;28;20742;-67
2022/09/29 05:49:24;;;;;;;1999.90;999.90;;;6.10;99.90;;;;;;5032139;28;20506;-67
2022/09/29 05:51:49;;;;;;;1999.90;999.90;;;6.10;99.90;;;;;;5032155;28;20525;-67
2022/09/29 05:54:15;;;;;;;1999.90;999.90;;;6.10;99.90;;;;;;5032033;28;20253;-67
2022/09/29 05:56:41;;;;;;;1999.90;999.90;;;6.20;99.90;;;;;;5033522;22;1149086;-70
2022/09/29 05:59:09;;;;;;;1999.90;999.90;;;6.20;99.90;;;;;;5032951;28;21086;-70
2022/09/29 06:01:34;;;;;;;1999.90;999.90;;;6.20;99.90;;;;;;5032980;28;20176;-70
2022/09/29 06:04:00;;;;;;;1999.90;999.90;;;6.20;99.90;;;;;;5032895;28;20453;-70
2022/09/29 06:06:27;;;;;;;1999.90;999.90;;;6.20;99.90;;;;;;5032813;28;20613;-71
2022/09/29 06:08:56;;;;;;;1999.90;999.90;;;6.30;99.90;;;;;;5032748;28;20403;-71
2022/09/29 06:11:24;;;;;;;1999.90;999.90;;;6.30;99.90;;;;;;5032740;28;20458;-70
2022/09/29 06:13:51;;;;;;;1999.90;999.90;;;6.30;99.90;;;;;;5032781;28;20411;-70
2022/09/29 06:16:19;;;;;;;1999.90;999.90;;;6.40;99.90;;;;;;5032527;28;20463;-70
2022/09/29 06:18:46;;;;;;;1999.90;999.90;;;6.40;99.90;;;;;;5032678;28;20415;-70
2022/09/29 06:21:15;;;;;;;1999.90;999.90;;;6.40;99.90;;;;;;5032778;28;20450;-71
2022/09/29 06:23:41;;;;;;;1999.90;999.90;;;6.50;99.90;;;;;;5032594;28;20414;-69
2022/09/29 06:26:10;;;;;;;1999.90;999.90;;;6.50;99.90;;;;;;5032418;28;20472;-69
2022/09/29 06:28:36;;;;;;;1999.90;999.90;;;6.60;99.90;;;;;;5032268;28;20164;-69
2022/09/29 06:31:09;;;;;;;1999.90;999.90;;;6.70;99.90;;;;;;5032454;28;20454;-69
2022/09/29 06:33:37;;;;;;;1999.90;999.90;;;6.70;99.90;;;;;;5032540;28;20422;-69
2022/09/29 06:39:07;;;;;;;1999.90;999.90;;;6.80;99.90;;;;;;5032580;28;20419;-71
2022/09/29 06:41:34;;;;;;;1999.90;999.90;;;6.90;99.90;;;;;;5032616;28;20415;-71
2022/09/29 06:44:00;;;;;;;1999.90;999.90;;;6.90;99.90;;;;;;5032599;28;20411;-71
2022/09/29 06:46:26;;;;;;;1999.90;999.90;;;7.00;99.90;;;;;;5032227;28;20438;-71
2022/09/29 06:48:52;;;;;;;1999.90;999.90;;;7.00;99.90;;;;;;5032072;28;20410;-70
2022/09/29 06:51:21;;;;;;;1999.90;999.90;;;7.10;99.90;;;;;;5031995;28;20200;-70
2022/09/29 06:53:47;;;;;;;1999.90;999.90;;;7.30;99.90;;;;;;5032329;28;20407;-70
2022/09/29 06:56:12;;;;;;;1999.90;999.90;;;7.40;99.90;;;;;;5031820;28;20442;-70
2022/09/29 06:58:39;;;;;;;1999.90;999.90;;;7.40;99.90;;;;;;5031824;28;20850;-70
2022/09/29 07:01:04;;;;;;;1999.90;999.90;;;7.50;99.90;;;;;;5031968;28;20172;-70
2022/09/29 07:03:30;;;;;;;1999.90;999.90;;;7.50;99.90;;;;;;5032026;28;20461;-70
2022/09/29 07:05:56;;;;;;;1999.90;999.90;;;7.60;99.90;;;;;;5031831;28;20526;-70
2022/09/29 07:08:22;;;;;;;1999.90;999.90;;;7.60;99.90;;;;;;5031979;28;20422;-70
2022/09/29 07:10:47;;;;;;;1999.90;999.90;;;7.70;99.90;;;;;;5031830;28;20454;-70
2022/09/29 07:13:13;;;;;;;1999.90;999.90;;;7.70;99.90;;;;;;5031872;28;20168;-70
2022/09/29 07:15:39;;;;;;;1999.90;999.90;;;7.80;99.90;;;;;;5031715;28;20267;-70
2022/09/29 07:18:04;;;;;;;1999.90;999.90;;;7.80;99.90;;;;;;5031610;28;20626;-70
2022/09/29 07:20:30;;;;;;;1999.90;999.90;;;7.90;99.90;;;;;;5031853;28;20183;-69
2022/09/29 07:22:57;;;;;;;1999.90;999.90;;;8.00;99.90;;;;;;5032007;28;20187;-69
2022/09/29 07:25:23;;;;;;;1999.90;999.90;;;8.00;99.90;;;;;;5031740;28;20431;-70
2022/09/29 07:27:50;;;;;;;1999.90;999.90;;;8.00;99.90;;;;;;5031534;28;20411;-70
2022/09/29 07:30:17;;;;;;;1999.90;999.90;;;8.00;99.90;;;;;;5031649;28;20483;-70
2022/09/29 07:32:42;;;;;;;1999.90;999.90;;;8.10;99.90;;;;;;5031749;28;20411;-70
2022/09/29 07:35:08;;;;;;;1999.90;999.90;;;8.20;99.90;;;;;;5031582;28;20489;-70
2022/09/29 07:37:34;;;;;;;1999.90;999.90;;;8.20;99.90;;;;;;5031409;28;20626;-70
2022/09/29 07:39:59;;;;;;;1999.90;999.90;;;8.20;99.90;;;;;;5031690;28;20576;-69
2022/09/29 07:42:28;;;;;;;1999.90;999.90;;;8.30;99.90;;;;;;5031792;28;20182;-69
2022/09/29 07:44:54;;;;;;;1999.90;999.90;;;8.40;99.90;;;;;;5031620;28;20213;-70
2022/09/29 07:47:19;;;;;;;1999.90;999.90;;;8.30;99.90;;;;;;5031329;28;20446;-70
2022/09/29 07:49:45;;;;;;;1999.90;999.90;;;8.40;99.90;;;;;;5031472;28;20480;-70
2022/09/29 07:52:12;;;;;;;1999.90;999.90;;;8.50;99.90;;;;;;5031607;28;20175;-69
2022/09/29 07:54:37;;;;;;;1999.90;999.90;;;8.50;99.90;;;;;;5031451;28;20261;-70
2022/09/29 07:57:03;;;;;;;1999.90;999.90;;;8.60;99.90;;;;;;5031352;28;20503;-70
2022/09/29 07:59:29;;;;;;;1999.90;999.90;;;8.60;99.90;;;;;;5035111;28;20168;-70
2022/09/29 08:01:55;;;;;;;1999.90;999.90;;;8.60;99.90;;;;;;5035179;28;20201;-70
2022/09/29 08:04:20;;;;;;;1999.90;999.90;;;8.60;99.90;;;;;;5035132;28;20524;-70
2022/09/29 08:06:46;;;;;;;1999.90;999.90;;;8.70;99.90;;;;;;5034811;28;20425;-70
2022/09/29 08:09:12;;;;;;;1999.90;999.90;;;8.80;99.90;;;;;;5035164;28;20179;-70
2022/09/29 08:11:40;;;;;;;1999.90;999.90;;;8.90;99.90;;;;;;5034857;28;20256;-70
2022/09/29 08:14:07;;;;;;;1999.90;999.90;;;9.00;99.90;;;;;;5034994;28;20777;-70
2022/09/29 08:16:33;;;;;;;1999.90;999.90;;;9.10;99.90;;;;;;5034568;28;20433;-70
2022/09/29 08:18:59;;;;;;;1999.90;999.90;;;9.20;99.90;;;;;;5034757;28;20460;-70
2022/09/29 08:21:25;;;;;;;1999.90;999.90;;;9.30;99.90;;;;;;5034764;28;20420;-70
2022/09/29 08:23:51;;;;;;;1999.90;999.90;;;9.40;99.90;;;;;;5034943;28;20986;-70
2022/09/29 08:26:19;;;;;;;1999.90;999.90;;;9.50;99.90;;;;;;5034704;28;20426;-70
2022/09/29 08:28:46;;;;;;;1999.90;999.90;;;9.70;99.90;;;;;;5034461;28;20409;-70
2022/09/29 08:31:21;;;;;;;1999.90;999.90;;;9.70;99.90;;;;;;5034558;28;20838;-70
2022/09/29 08:33:48;;;;;;;1999.90;999.90;;;9.80;99.90;;;;;;5034815;28;20417;-70
2022/09/29 08:36:15;;;;;;;1999.90;999.90;;;9.90;99.90;;;;;;5034437;28;20437;-70
2022/09/29 08:38:42;;;;;;;1999.90;999.90;;;10.00;99.90;;;;;;5034274;28;20409;-70
2022/09/29 08:41:31;;;;;;;1999.90;999.90;;;10.00;99.90;;;;;;5034455;28;20414;-70
2022/09/29 08:44:02;;;;;;;1999.90;999.90;;;10.20;99.90;;;;;;5034369;28;20569;-70
2022/09/29 08:46:31;;;;;;;1999.90;999.90;;;10.20;99.90;;;;;;5034218;28;20430;-70
2022/09/29 08:49:02;;;;;;;1999.90;999.90;;;10.40;99.90;;;;;;5034217;28;20904;-70
2022/09/29 08:51:32;;;;;;;1999.90;999.90;;;10.60;99.90;;;;;;5034211;28;20763;-70
2022/09/29 08:54:05;;;;;;;1999.90;999.90;;;10.70;99.90;;;;;;5031410;28;20403;-70
2022/09/29 08:56:32;;;;;;;1999.90;999.90;;;10.80;99.90;;;;;;5033156;28;20443;-70
2022/09/29 08:58:58;;;;;;;1999.90;999.90;;;10.90;99.90;;;;;;5033487;28;20460;-70
2022/09/29 09:01:34;;;;;;;1999.90;999.90;;;11.10;99.90;;;;;;5033414;28;20418;-70
2022/09/29 09:03:59;;;;;;;1999.90;999.90;;;11.30;99.90;;;;;;5033810;28;20171;-70
2022/09/29 09:06:37;;;;;;;1999.90;999.90;;;11.30;99.90;;;;;;5033534;28;20951;-70
2022/09/29 09:09:21;;;;;;;1999.90;999.90;;;11.30;99.90;;;;;;5032144;28;20238;-70
2022/09/29 09:12:19;;;;;;;1999.90;999.90;;;11.50;99.90;;;;;;5033185;28;20549;-70
2022/09/29 09:14:57;;;;;;;1999.90;999.90;;;11.60;99.90;;;;;;5006393;28;20457;-69
2022/09/29 09:17:43;;;;;;;1999.90;999.90;;;11.80;99.90;;;;;;5012522;28;20445;-70
2022/09/29 09:20:41;;;;;;;1999.90;999.90;;;11.90;99.90;;;;;;5013183;28;20423;-70
2022/09/29 09:23:20;;;;;;;1999.90;999.90;;;12.00;99.90;;;;;;5007530;28;20479;-70
2022/09/29 09:26:04;;;;;;;1999.90;999.90;;;12.10;99.90;;;;;;5013431;28;21037;-69
2022/09/29 09:28:35;;;;;;;1999.90;999.90;;;12.20;99.90;;;;;;5013241;28;20416;-70
2022/09/29 09:31:04;;;;;;;1999.90;999.90;;;12.30;99.90;;;;;;5012770;28;20487;-69
2022/09/29 09:33:34;;;;;;;1999.90;999.90;;;12.40;99.90;;;;;;5013292;28;20435;-69
2022/09/29 09:36:18;;;;;;;1999.90;999.90;;;12.50;99.90;;;;;;5013002;28;20430;-69
2022/09/29 09:38:52;;;;;;;1999.90;999.90;;;12.50;99.90;;;;;;5012626;28;20409;-69
2022/09/29 09:41:21;;;;;;;1999.90;999.90;;;12.60;99.90;;;;;;5013294;28;20415;-70
2022/09/29 09:43:52;;;;;;;1999.90;999.90;;;12.70;99.90;;;;;;5013113;28;20454;-70
2022/09/29 09:47:01;;;;;;;1999.90;999.90;;;12.80;99.90;;;;;;5012551;28;20432;-69
2022/09/29 09:49:38;;;;;;;1999.90;999.90;;;13.00;99.90;;;;;;4971216;28;20934;-69
2022/09/29 09:52:34;;;;;;;1999.90;999.90;;;13.10;99.90;;;;;;4971696;28;20881;-70
2022/09/29 09:55:04;;;;;;;1999.90;999.90;;;13.20;99.90;;;;;;5003053;28;20450;-69
2022/09/29 09:57:51;;;;;;;1999.90;999.90;;;13.20;99.90;;;;;;5012610;28;20413;-70
2022/09/29 10:00:29;;;;;;;1999.90;999.90;;;13.30;99.90;;;;;;5012395;28;20415;-70
2022/09/29 10:02:56;;;;;;;1999.90;999.90;;;13.50;99.90;;;;;;5012790;28;20406;-70
2022/09/29 10:05:28;;;;;;;1999.90;999.90;;;13.70;99.90;;;;;;5012698;28;20503;-70
2022/09/29 10:07:54;;;;;;;1999.90;999.90;;;13.80;99.90;;;;;;5012261;28;21263;-70
2022/09/29 10:10:22;;;;;;;1999.90;999.90;;;13.90;99.90;;;;;;5012420;28;20474;-70
2022/09/29 10:13:05;;;;;;;1999.90;999.90;;;14.00;99.90;;;;;;5012466;28;20432;-70
2022/09/29 10:15:37;;;;;;;1999.90;999.90;;;14.10;99.90;;;;;;5012024;28;20456;-70
2022/09/29 10:18:23;;;;;;;1999.90;999.90;;;14.20;99.90;;;;;;5012356;28;20407;-70
2022/09/29 10:20:49;;;;;;;1999.90;999.90;;;14.30;99.90;;;;;;5012089;28;20821;-69
2022/09/29 10:23:25;;;;;;;1999.90;999.90;;;14.50;99.90;;;;;;5012015;28;20412;-69
2022/09/29 10:25:59;;;;;;;1999.90;999.90;;;14.60;99.90;;;;;;5012205;28;20192;-68
2022/09/29 10:28:29;;;;;;;1999.90;999.90;;;14.70;99.90;;;;;;5012191;28;20409;-68
2022/09/29 10:30:54;;;;;;;1999.90;999.90;;;15.00;99.90;;;;;;5011644;28;20951;-68
2022/09/29 10:33:23;;;;;;;1999.90;999.90;;;15.20;99.90;;;;;;5012241;28;20417;-69
2022/09/29 10:36:01;;;;;;;1999.90;999.90;;;15.20;99.90;;;;;;5012246;28;20201;-68
2022/09/29 10:38:27;;;;;;;1999.90;999.90;;;15.20;99.90;;;;;;5011464;28;20490;-68
2022/09/29 10:41:06;;;;;;;1999.90;999.90;;;15.20;99.90;;;;;;5012343;28;20495;-68
2022/09/29 10:43:42;;;;;;;1999.90;999.90;;;15.30;99.90;;;;;;5012339;28;20437;-68
2022/09/29 10:46:49;;;;;;;1999.90;999.90;;;15.50;99.90;;;;;;5011259;28;20442;-69
2022/09/29 10:49:23;;;;;;;1999.90;999.90;;;15.70;99.90;;;;;;4991618;28;20436;-70
2022/09/29 10:52:02;;;;;;;1999.90;999.90;;;15.90;99.90;;;;;;5011777;28;20455;-70
2022/09/29 10:54:32;;;;;;;1999.90;999.90;;;16.00;99.90;;;;;;5011876;28;20490;-70
2022/09/29 10:56:58;;;;;;;1999.90;999.90;;;16.10;99.90;;;;;;5010308;28;20526;-70
2022/09/29 10:59:25;;;;;;;1999.90;999.90;;;16.20;99.90;;;;;;5011682;28;20411;-70
2022/09/29 11:01:57;;;;;;;1999.90;999.90;;;16.10;99.90;;;;;;5011909;28;20506;-70
2022/09/29 11:04:32;;;;;;;1999.90;999.90;;;16.10;99.90;;;;;;5012054;28;20788;-70
2022/09/29 11:07:11;;;;;;;1999.90;999.90;;;16.20;99.90;;;;;;5011099;28;20948;-70
2022/09/29 11:09:42;;;;;;;1999.90;999.90;;;16.30;99.90;;;;;;5011479;28;21089;-70
2022/09/29 11:12:27;;;;;;;1999.90;999.90;;;16.40;99.90;;;;;;5011687;28;20486;-70
2022/09/29 11:14:53;;;;;;;1999.90;999.90;;;16.50;99.90;;;;;;5011299;28;20410;-70
2022/09/29 11:17:28;;;;;;;1999.90;999.90;;;16.50;99.90;;;;;;5011543;28;20403;-70
2022/09/29 11:19:58;;;;;;;1999.90;999.90;;;16.50;99.90;;;;;;5011587;28;20648;-70
2022/09/29 11:22:54;;;;;;;1999.90;999.90;;;16.60;99.90;;;;;;5011196;28;20411;-70
2022/09/29 11:25:44;;;;;;;1999.90;999.90;;;16.70;99.90;;;;;;5011458;28;20502;-70
2022/09/29 11:28:10;;;;;;;1999.90;999.90;;;16.90;99.90;;;;;;5011403;28;20550;-70
2022/09/29 11:30:41;;;;;;;1999.90;999.90;;;17.30;99.90;;;;;;5010666;28;20546;-71
2022/09/29 11:33:13;;;;;;;1999.90;999.90;;;17.80;99.90;;;;;;5013131;28;20176;-71
2022/09/29 11:35:57;;;;;;;1999.90;999.90;;;18.70;99.90;;;;;;5015051;28;20435;-71
2022/09/29 11:38:27;;;;;;;1999.90;999.90;;;19.90;99.70;;;;;;5014817;28;20437;-71
2022/09/29 11:41:19;;;;;;;1999.90;999.90;;;21.10;92.40;;;;;;5015265;28;20421;-71
2022/09/29 11:43:58;;;;;;;1999.90;999.90;;;21.90;73.30;;;;;;5015367;28;20895;-71
2022/09/29 11:47:01;;;;;;;1999.90;999.90;;;22.20;67.30;;;;;;5015221;28;20799;-71
2022/09/29 11:49:54;;;;;;;1999.90;999.90;;;22.10;51.30;;;;;;5014887;28;20418;-71
2022/09/29 11:52:23;;;;;;;1999.90;999.90;;;22.90;47.70;;;;;;5014649;28;20476;-71
2022/09/29 11:54:56;;;;;;;1999.90;999.90;;;23.20;44.60;;;;;;5014880;28;20406;-71
2022/09/29 11:57:54;;;;;;;1999.90;999.90;;;23.60;36.50;;;;;;5015371;28;20378;-70
2022/09/29 12:00:32;;;;;;;1999.90;999.90;;;24.00;35.80;;;;;;5014696;28;20423;-70
2022/09/29 12:03:15;;;;;;;1999.90;999.90;;;24.30;35.90;;;;;;5014892;28;20435;-70
2022/09/29 12:05:43;;;;;;;1999.90;999.90;;;24.60;33.20;;;;;;5015067;28;20431;-70
2022/09/29 12:08:28;;;;;;;1999.90;999.90;;;24.60;26.00;;;;;;5014087;28;20454;-70
2022/09/29 12:11:23;;;;;;;1999.90;999.90;;;24.50;26.70;;;;;;5014433;28;20455;-70
2022/09/29 12:14:13;;;;;;;1999.90;999.90;;;24.40;26.10;;;;;;5010660;28;20425;-70
2022/09/29 12:16:51;;;;;;;1999.90;999.90;;;24.40;25.90;;;;;;5014737;28;20787;-71
2022/09/29 12:19:22;;;;;;;1999.90;999.90;;;24.70;24.10;;;;;;5014602;28;20366;-68
2022/09/29 12:21:51;;;;;;;1999.90;999.90;;;25.30;24.80;;;;;;5014037;28;20408;-68
2022/09/29 12:24:40;;;;;;;1999.90;999.90;;;25.70;20.10;;;;;;5014460;28;20407;-68
2022/09/29 12:27:23;;;;;;;1999.90;999.90;;;26.00;16.60;;;;;;5014599;28;20416;-68
2022/09/29 12:30:12;;;;;;;1999.90;999.90;;;26.10;16.10;;;;;;5013917;28;20383;-67